createdAt,value
2018-06-25T00:00:37.459Z,99.90
2018-06-25T00:03:09.638Z,99.90
2018-06-25T00:05:40.771Z,99.90
2018-06-25T00:08:12.076Z,99.90
2018-06-25T00:10:44.093Z,99.90
2018-06-25T00:13:15.198Z,99.90
2018-06-25T00:15:47.315Z,99.90
2018-06-25T00:18:19.076Z,99.90
2018-06-25T00:20:50.208Z,99.90
2018-06-25T00:23:21.299Z,99.90
2018-06-25T00:25:52.406Z,99.90
2018-06-25T00:28:23.441Z,99.90
2018-06-25T00:30:55.362Z,99.90
2018-06-25T00:33:26.618Z,99.90
2018-06-25T00:35:57.674Z,99.90
2018-06-25T00:38:28.731Z,99.90
2018-06-25T00:40:59.635Z,99.90
2018-06-25T00:43:31.015Z,99.90
2018-06-25T00:46:02.293Z,99.90
2018-06-25T00:48:33.428Z,99.90
2018-06-25T00:51:04.445Z,99.90
2018-06-25T00:53:35.541Z,99.90
2018-06-25T00:56:07.229Z,99.90
2018-06-25T00:58:54.551Z,99.90
2018-06-25T01:01:25.654Z,99.90
2018-06-25T01:03:57.268Z,99.90
2018-06-25T01:06:29.585Z,99.90
2018-06-25T01:09:00.733Z,99.90
2018-06-25T01:11:32.627Z,99.90
2018-06-25T01:14:04.009Z,99.90
2018-06-25T01:16:35.207Z,99.90
2018-06-25T01:19:06.692Z,99.90
2018-06-25T01:21:37.959Z,99.90
2018-06-25T01:24:09.851Z,99.90
2018-06-25T01:26:40.811Z,99.90
2018-06-25T01:29:11.895Z,99.90
2018-06-25T01:31:43.724Z,99.90
2018-06-25T01:34:15.765Z,99.90
2018-06-25T01:36:46.983Z,99.90
2018-06-25T01:39:18.405Z,99.90
2018-06-25T01:41:49.591Z,99.90
2018-06-25T01:44:20.829Z,99.90
2018-06-25T01:46:51.809Z,99.90
2018-06-25T01:49:22.955Z,99.90
2018-06-25T01:51:53.966Z,99.90
2018-06-25T01:54:25.079Z,99.90
2018-06-25T01:56:56.380Z,99.90
2018-06-25T02:01:58.965Z,99.90
2018-06-25T02:04:30.675Z,99.90
2018-06-25T02:07:02.185Z,99.90
2018-06-25T02:09:33.511Z,99.90
2018-06-25T02:12:04.638Z,99.90
2018-06-25T02:14:35.586Z,99.90
2018-06-25T02:17:06.836Z,99.90
2018-06-25T02:19:37.952Z,99.90
2018-06-25T02:22:09.312Z,99.90
2018-06-25T02:24:40.383Z,99.90
2018-06-25T02:27:11.709Z,99.90
2018-06-25T02:29:42.957Z,99.90
2018-06-25T02:32:14.134Z,99.90
2018-06-25T02:34:45.396Z,99.90
2018-06-25T02:37:16.496Z,99.90
2018-06-25T02:39:48.512Z,99.90
2018-06-25T02:42:19.420Z,99.90
2018-06-25T02:44:50.264Z,99.90
2018-06-25T02:47:21.645Z,99.90
2018-06-25T02:49:52.480Z,99.90
2018-06-25T02:52:23.370Z,99.90
2018-06-25T02:54:54.510Z,99.90
2018-06-25T02:57:25.551Z,99.90
2018-06-25T02:59:56.509Z,99.90
2018-06-25T03:02:27.528Z,99.90
2018-06-25T03:04:58.542Z,99.90
2018-06-25T03:07:29.699Z,99.90
2018-06-25T03:10:00.726Z,99.90
2018-06-25T03:12:32.559Z,99.90
2018-06-25T03:15:03.944Z,99.90
2018-06-25T03:17:34.801Z,99.90
2018-06-25T03:20:06.031Z,99.90
2018-06-25T03:22:37.402Z,99.90
2018-06-25T03:25:08.234Z,99.90
2018-06-25T03:27:39.280Z,99.90
2018-06-25T03:30:10.224Z,99.90
2018-06-25T03:32:42.873Z,99.90
2018-06-25T03:35:13.775Z,99.90
2018-06-25T03:37:45.557Z,99.90
2018-06-25T03:40:16.433Z,99.90
2018-06-25T03:42:47.779Z,99.90
2018-06-25T03:45:18.831Z,99.90
2018-06-25T03:50:20.885Z,99.90
2018-06-25T03:52:51.860Z,99.90
2018-06-25T03:55:22.915Z,99.90
2018-06-25T03:57:54.154Z,99.90
2018-06-25T04:00:25.529Z,99.90
2018-06-25T04:02:56.768Z,99.90
2018-06-25T04:05:27.853Z,99.90
2018-06-25T04:07:59.807Z,99.90
2018-06-25T04:15:32.762Z,99.90
2018-06-25T04:18:03.779Z,99.90
2018-06-25T04:20:34.814Z,99.90
2018-06-25T04:23:05.628Z,99.90
2018-06-25T04:25:36.827Z,99.90
2018-06-25T04:30:39.102Z,99.90
2018-06-25T04:33:10.055Z,99.90
2018-06-25T04:35:41.734Z,99.90
2018-06-25T04:38:13.275Z,99.90
2018-06-25T04:40:44.650Z,99.90
2018-06-25T04:43:22.764Z,99.90
2018-06-25T04:45:53.968Z,99.90
2018-06-25T04:48:25.072Z,99.90
2018-06-25T04:50:56.253Z,99.90
2018-06-25T04:53:27.665Z,99.90
2018-06-25T04:55:58.778Z,99.90
2018-06-25T04:58:30.879Z,99.90
2018-06-25T05:01:02.298Z,99.90
2018-06-25T05:03:33.267Z,99.90
2018-06-25T05:06:05.304Z,99.90
2018-06-25T05:08:37.195Z,99.90
2018-06-25T05:11:09.061Z,99.90
2018-06-25T05:13:39.941Z,99.90
2018-06-25T05:16:11.836Z,99.90
2018-06-25T05:18:44.340Z,99.90
2018-06-25T05:21:16.294Z,99.90
2018-06-25T05:23:47.605Z,99.90
2018-06-25T05:26:18.733Z,99.90
2018-06-25T05:31:20.951Z,99.90
2018-06-25T05:33:52.265Z,99.90
2018-06-25T05:36:23.814Z,99.90
2018-06-25T05:38:55.430Z,99.90
2018-06-25T05:41:27.123Z,99.90
2018-06-25T05:43:58.205Z,99.90
2018-06-25T05:46:29.467Z,99.90
2018-06-25T05:51:31.053Z,99.90
2018-06-25T05:54:02.945Z,99.90
2018-06-25T05:56:34.406Z,99.90
2018-06-25T05:59:06.088Z,99.90
2018-06-25T06:01:37.614Z,99.90
2018-06-25T06:04:09.079Z,99.90
2018-06-25T06:06:40.166Z,99.90
2018-06-25T06:09:11.395Z,99.90
2018-06-25T06:11:44.117Z,99.90
2018-06-25T06:14:15.643Z,99.90
2018-06-25T06:16:46.915Z,99.90
2018-06-25T06:19:18.661Z,99.90
2018-06-25T06:21:50.189Z,99.90
2018-06-25T06:24:22.507Z,99.90
2018-06-25T06:26:54.132Z,99.90
2018-06-25T06:29:29.322Z,99.90
2018-06-25T06:32:01.202Z,99.90
2018-06-25T06:34:33.260Z,99.90
2018-06-25T06:37:04.663Z,99.90
2018-06-25T06:39:36.371Z,99.90
2018-06-25T06:44:39.422Z,99.90
2018-06-25T06:47:11.429Z,99.90
2018-06-25T06:49:42.578Z,99.10
2018-06-25T06:52:13.601Z,98.20
2018-06-25T06:59:46.639Z,97.20
2018-06-25T07:02:17.894Z,95.50
2018-06-25T07:04:49.451Z,94.00
2018-06-25T07:07:21.552Z,94.30
2018-06-25T07:09:53.563Z,93.10
2018-06-25T07:12:26.105Z,93.20
2018-06-25T07:14:57.383Z,93.00
2018-06-25T07:17:28.547Z,92.00
2018-06-25T07:19:59.377Z,91.30
2018-06-25T07:22:30.628Z,90.70
2018-06-25T07:30:04.637Z,90.70
2018-06-25T07:32:35.691Z,90.10
2018-06-25T07:35:06.705Z,90.50
2018-06-25T07:37:37.835Z,90.10
2018-06-25T07:40:08.972Z,90.20
2018-06-25T07:42:40.074Z,86.80
2018-06-25T07:45:11.856Z,85.30
2018-06-25T07:47:44.042Z,83.80
2018-06-25T07:50:15.867Z,82.00
2018-06-25T07:52:47.694Z,80.50
2018-06-25T08:41:15.807Z,78.30
2018-06-25T08:43:48.251Z,60.70
2018-06-25T08:46:19.645Z,61.90
2018-06-25T08:48:51.132Z,61.50
2018-06-25T08:51:23.013Z,56.30
2018-06-25T08:53:54.871Z,52.90
2018-06-25T08:56:26.541Z,52.60
2018-06-25T08:58:59.277Z,52.80
2018-06-25T09:01:30.897Z,52.10
2018-06-25T09:04:03.634Z,50.30
2018-06-25T09:06:35.056Z,49.40
2018-06-25T09:09:10.629Z,49.40
2018-06-25T09:11:41.709Z,49.80
2018-06-25T09:14:14.049Z,49.60
2018-06-25T09:16:45.982Z,49.20
2018-06-25T09:19:17.549Z,49.20
2018-06-25T09:21:49.845Z,47.60
2018-06-25T09:24:21.137Z,45.30
2018-06-25T09:26:53.777Z,44.70
2018-06-25T09:29:26.785Z,44.10
2018-06-25T09:31:59.593Z,42.00
2018-06-25T09:34:36.693Z,42.80
2018-06-25T09:37:09.544Z,43.20
2018-06-25T09:39:44.501Z,39.90
2018-06-25T09:42:17.317Z,42.00
2018-06-25T09:44:50.135Z,41.40
2018-06-25T09:47:22.000Z,39.10
2018-06-25T09:49:53.749Z,38.30
2018-06-25T09:54:56.733Z,38.00
2018-06-25T09:57:28.369Z,37.50
2018-06-25T10:00:00.699Z,38.30
2018-06-25T10:02:32.542Z,37.70
2018-06-25T10:05:03.715Z,38.00
2018-06-25T10:07:35.301Z,38.50
2018-06-25T10:10:06.659Z,38.20
2018-06-25T10:12:37.867Z,36.10
2018-06-25T10:15:09.201Z,35.90
2018-06-25T10:17:41.877Z,35.40
2018-06-25T10:20:13.598Z,34.60
2018-06-25T10:22:45.078Z,35.90
2018-06-25T10:25:16.183Z,34.50
2018-06-25T10:27:47.384Z,34.30
2018-06-25T10:30:18.754Z,35.50
2018-06-25T10:32:49.867Z,34.60
2018-06-25T10:35:21.812Z,35.50
2018-06-25T10:37:53.374Z,35.20
2018-06-25T10:40:25.938Z,34.50
2018-06-25T10:42:57.129Z,33.80
2018-06-25T10:45:28.593Z,32.90
2018-06-25T10:48:00.099Z,34.60
2018-06-25T10:50:31.103Z,34.00
2018-06-25T10:53:03.133Z,34.00
2018-06-25T10:55:34.177Z,36.50
2018-06-25T10:58:05.375Z,39.20
2018-06-25T11:00:36.553Z,41.30
2018-06-25T11:03:08.890Z,42.70
2018-06-25T11:05:40.212Z,44.20
2018-06-25T11:08:11.519Z,44.00
2018-06-25T11:10:45.740Z,43.60
2018-06-25T11:13:17.728Z,40.50
2018-06-25T11:15:48.808Z,38.90
2018-06-25T11:18:20.222Z,37.40
2018-06-25T11:20:52.861Z,36.90
2018-06-25T11:23:24.563Z,34.80
2018-06-25T11:25:57.940Z,33.30
2018-06-25T11:28:29.338Z,33.60
2018-06-25T11:31:03.026Z,34.10
2018-06-25T11:33:34.293Z,35.60
2018-06-25T11:36:08.907Z,36.50
2018-06-25T11:38:41.394Z,37.30
2018-06-25T11:41:13.848Z,36.40
2018-06-25T11:43:45.655Z,35.20
2018-06-25T11:46:17.186Z,35.00
2018-06-25T11:48:48.508Z,34.10
2018-06-25T11:51:20.913Z,32.60
2018-06-25T11:53:52.685Z,32.90
2018-06-25T11:56:23.724Z,31.00
2018-06-25T11:58:55.499Z,32.10
2018-06-25T12:01:27.414Z,32.20
2018-06-25T12:04:04.162Z,32.60
2018-06-25T12:06:37.261Z,33.10
2018-06-25T12:09:14.476Z,31.60
2018-06-25T12:11:48.225Z,32.70
2018-06-25T12:14:21.035Z,33.90
2018-06-25T12:16:52.869Z,33.90
2018-06-25T12:19:25.316Z,32.30
2018-06-25T12:21:57.601Z,31.60
2018-06-25T12:24:31.812Z,31.50
2018-06-25T12:27:05.572Z,39.70
2018-06-25T12:29:37.891Z,42.00
2018-06-25T12:32:10.518Z,45.00
2018-06-25T12:34:42.321Z,47.90
2018-06-25T12:37:13.761Z,51.30
2018-06-25T12:39:45.522Z,54.20
2018-06-25T12:42:18.417Z,56.60
2018-06-25T12:44:50.056Z,56.20
2018-06-25T12:47:22.691Z,56.70
2018-06-25T12:55:03.950Z,57.20
2018-06-25T12:57:41.082Z,58.70
2018-06-25T13:00:12.489Z,60.40
2018-06-25T13:02:49.422Z,60.90
2018-06-25T13:05:21.038Z,62.70
2018-06-25T13:10:27.077Z,62.40
2018-06-25T13:12:59.035Z,60.70
2018-06-25T13:15:30.923Z,60.60
2018-06-25T13:20:33.728Z,63.80
2018-06-25T13:23:06.509Z,70.10
2018-06-25T13:25:38.116Z,79.40
2018-06-25T13:28:09.977Z,81.20
2018-06-25T13:30:42.059Z,89.80
2018-06-25T13:33:13.924Z,95.20
2018-06-25T13:35:45.534Z,99.90
2018-06-25T13:38:17.823Z,99.90
2018-06-25T13:40:49.248Z,99.90
2018-06-25T13:43:20.557Z,99.90
2018-06-25T13:45:52.658Z,99.90
2018-06-25T13:48:25.230Z,99.90
2018-06-25T13:50:59.361Z,99.90
2018-06-25T13:53:31.440Z,99.90
2018-06-25T13:56:03.965Z,99.90
2018-06-25T13:58:35.948Z,99.90
2018-06-25T14:01:08.564Z,99.90
2018-06-25T14:03:40.470Z,99.90
2018-06-25T14:06:14.178Z,99.90
2018-06-25T14:08:45.860Z,99.90
2018-06-25T14:11:18.865Z,99.90
2018-06-25T14:13:50.492Z,99.90
2018-06-25T14:16:22.138Z,99.90
2018-06-25T14:18:53.583Z,99.90
2018-06-25T14:21:25.351Z,99.90
2018-06-25T14:24:02.460Z,99.90
2018-06-25T14:26:39.427Z,99.90
2018-06-25T14:29:15.571Z,99.90
2018-06-25T14:31:46.937Z,99.90
2018-06-25T14:34:23.303Z,99.90
2018-06-25T14:36:54.619Z,99.90
2018-06-25T14:39:26.724Z,99.90
2018-06-25T14:47:00.783Z,99.90
2018-06-25T14:49:32.036Z,99.90
2018-06-25T14:52:03.582Z,99.90
2018-06-25T14:54:34.445Z,99.90
2018-06-25T14:57:06.232Z,99.90
2018-06-25T14:59:38.015Z,99.90
2018-06-25T15:02:10.361Z,99.90
2018-06-25T15:04:41.805Z,99.90
2018-06-25T15:07:16.972Z,99.90
2018-06-25T15:09:51.663Z,99.90
2018-06-25T15:12:23.994Z,99.90
2018-06-25T15:14:56.088Z,99.90
2018-06-25T15:17:29.245Z,99.90
2018-06-25T15:20:02.746Z,99.90
2018-06-25T15:22:38.032Z,99.90
2018-06-25T15:25:10.312Z,99.90
2018-06-25T15:27:42.515Z,99.90
2018-06-25T15:30:14.415Z,99.90
2018-06-25T15:32:46.196Z,99.90
2018-06-25T15:35:18.997Z,99.90
2018-06-25T15:37:50.833Z,99.90
2018-06-25T15:40:23.540Z,99.90
2018-06-25T15:42:56.290Z,99.90
2018-06-25T15:45:29.838Z,99.90
2018-06-25T15:48:03.311Z,99.90
2018-06-25T15:50:37.043Z,99.90
2018-06-25T15:53:10.012Z,99.90
2018-06-25T15:55:46.880Z,99.90
2018-06-25T15:58:18.974Z,99.90
2018-06-25T16:00:51.586Z,99.90
2018-06-25T16:03:26.089Z,99.90
2018-06-25T16:06:01.478Z,99.90
2018-06-25T16:08:33.642Z,99.90
2018-06-25T16:11:08.609Z,99.90
2018-06-25T16:13:41.351Z,99.90
2018-06-25T16:16:14.244Z,99.90
2018-06-25T16:18:49.636Z,99.90
2018-06-25T16:21:21.045Z,99.90
2018-06-25T16:26:23.736Z,99.90
2018-06-25T16:28:56.066Z,99.90
2018-06-25T16:31:28.399Z,99.90
2018-06-25T16:34:00.073Z,99.90
2018-06-25T16:36:32.296Z,99.90
2018-06-25T16:39:03.823Z,99.90
2018-06-25T16:41:35.775Z,99.90
2018-06-25T16:44:08.632Z,99.90
2018-06-25T16:46:40.539Z,99.90
2018-06-25T16:49:14.359Z,99.90
2018-06-25T16:51:47.554Z,99.90
2018-06-25T16:54:25.385Z,99.90
2018-06-25T16:56:57.375Z,99.90
2018-06-25T16:59:29.243Z,99.90
2018-06-25T17:02:05.471Z,99.90
2018-06-25T17:04:37.247Z,99.90
2018-06-25T17:07:09.270Z,99.90
2018-06-25T17:09:40.819Z,99.90
2018-06-25T17:12:14.187Z,99.90
2018-06-25T17:14:47.402Z,99.90
2018-06-25T17:17:18.913Z,99.90
2018-06-25T17:19:51.594Z,99.90
2018-06-25T17:22:23.572Z,99.90
2018-06-25T17:24:55.332Z,99.90
2018-06-25T17:27:28.089Z,99.90
2018-06-25T17:32:33.422Z,99.90
2018-06-25T17:35:05.623Z,99.90
2018-06-25T17:37:37.964Z,99.90
2018-06-25T17:42:44.068Z,99.90
2018-06-25T17:45:16.939Z,99.90
2018-06-25T17:47:49.984Z,99.90
2018-06-25T17:50:22.355Z,99.90
2018-06-25T17:52:54.953Z,99.90
2018-06-25T17:55:28.396Z,99.90
2018-06-25T17:58:01.322Z,99.90
2018-06-25T18:00:34.698Z,99.90
2018-06-25T18:05:39.856Z,99.90
2018-06-25T18:08:12.800Z,99.90
2018-06-25T18:10:49.045Z,99.90
2018-06-25T18:13:22.356Z,99.90
2018-06-25T18:15:55.874Z,99.90
2018-06-25T18:18:28.989Z,99.90
2018-06-25T18:21:01.948Z,99.90
2018-06-25T18:23:35.662Z,99.90
2018-06-25T18:26:08.800Z,99.90
2018-06-25T18:28:41.659Z,99.90
2018-06-25T18:31:14.721Z,99.90
2018-06-25T18:33:49.219Z,99.90
2018-06-25T18:36:23.127Z,99.90
2018-06-25T18:38:56.100Z,99.90
2018-06-25T18:41:29.192Z,99.90
2018-06-25T18:44:02.866Z,99.90
2018-06-25T18:46:35.541Z,99.90
2018-06-25T18:49:08.840Z,99.90
2018-06-25T18:51:42.152Z,99.90
2018-06-25T18:54:15.244Z,99.90
2018-06-25T18:56:47.805Z,99.90
2018-06-25T18:59:20.311Z,99.90
2018-06-25T19:01:53.045Z,99.90
2018-06-25T19:04:25.814Z,99.90
2018-06-25T19:06:58.575Z,99.90
2018-06-25T19:09:31.326Z,99.90
2018-06-25T19:12:03.862Z,99.90
2018-06-25T19:14:37.127Z,99.90
2018-06-25T19:17:09.776Z,99.90
2018-06-25T19:19:42.688Z,99.90
2018-06-25T19:22:18.116Z,99.90
2018-06-25T19:24:52.289Z,99.90
2018-06-25T19:27:27.139Z,99.90
2018-06-25T19:30:05.121Z,99.90
2018-06-25T19:32:38.616Z,99.90
2018-06-25T19:35:14.753Z,99.90
2018-06-25T19:37:51.330Z,99.90
2018-06-25T19:40:25.805Z,99.90
2018-06-25T20:28:56.368Z,99.90
2018-06-25T20:31:29.976Z,99.90
2018-06-25T20:34:02.782Z,99.90
2018-06-25T20:36:35.531Z,99.90
2018-06-25T20:39:12.988Z,99.90
2018-06-25T20:41:46.823Z,99.90
2018-06-25T20:44:20.489Z,99.90
2018-06-25T20:46:54.217Z,99.90
2018-06-25T20:49:26.660Z,99.90
2018-06-25T20:52:01.383Z,99.90
2018-06-25T20:54:33.362Z,99.90
2018-06-25T20:57:07.153Z,99.90
2018-06-25T20:59:40.016Z,99.90
2018-06-25T21:02:11.519Z,99.90
2018-06-25T21:04:44.484Z,99.90
2018-06-25T21:07:16.050Z,99.90
2018-06-25T21:09:48.779Z,99.90
2018-06-25T21:12:21.087Z,99.90
2018-06-25T21:14:52.480Z,99.90
2018-06-25T21:17:24.072Z,99.90
2018-06-25T21:19:55.494Z,99.90
2018-06-25T21:22:27.292Z,99.90
2018-06-25T21:24:58.659Z,99.90
2018-06-25T21:27:30.555Z,99.90
2018-06-25T21:30:03.591Z,99.90
2018-06-25T21:32:35.158Z,99.90
2018-06-25T21:35:07.449Z,99.90
2018-06-25T21:37:39.759Z,99.90
2018-06-25T21:42:42.425Z,99.90
2018-06-25T21:45:15.352Z,99.90
2018-06-25T21:47:46.658Z,99.90
2018-06-25T21:50:18.013Z,99.90
2018-06-25T21:52:49.360Z,99.90
2018-06-25T21:55:20.797Z,99.90
2018-06-25T21:57:54.384Z,99.90
2018-06-25T22:00:31.028Z,99.90
2018-06-25T22:03:03.309Z,99.90
2018-06-25T22:05:36.737Z,99.90
2018-06-25T22:08:07.907Z,99.90
2018-06-25T22:10:42.339Z,99.90
2018-06-25T22:13:14.523Z,99.90
2018-06-25T22:15:46.466Z,99.90
2018-06-25T22:18:17.680Z,99.90
2018-06-25T22:20:48.700Z,99.90
2018-06-25T22:23:24.377Z,99.90
2018-06-25T22:25:55.827Z,99.90
2018-06-25T22:28:26.963Z,99.90
2018-06-25T22:30:58.105Z,99.90
2018-06-25T22:33:29.431Z,99.90
2018-06-25T22:36:00.442Z,99.90
2018-06-25T22:38:32.076Z,99.90
2018-06-25T22:41:03.165Z,99.90
2018-06-25T22:43:35.681Z,99.90
2018-06-25T22:46:06.877Z,99.90
2018-06-25T22:48:38.200Z,99.90
2018-06-25T22:51:09.691Z,99.90
2018-06-25T22:53:41.614Z,99.90
2018-06-25T22:56:13.218Z,99.90
2018-06-25T22:58:44.981Z,99.90
2018-06-25T23:01:16.071Z,99.90
2018-06-25T23:03:47.574Z,99.90
2018-06-25T23:06:18.933Z,99.90
2018-06-25T23:08:50.300Z,99.90
2018-06-25T23:11:21.588Z,99.90
2018-06-25T23:13:52.611Z,99.90
2018-06-25T23:16:23.814Z,99.90
2018-06-25T23:18:54.791Z,99.90
2018-06-25T23:21:26.056Z,99.90
2018-06-25T23:23:57.349Z,99.90
2018-06-25T23:26:29.413Z,99.90
2018-06-25T23:29:00.515Z,99.90
2018-06-25T23:31:31.855Z,99.90
2018-06-25T23:34:03.142Z,99.90
2018-06-25T23:36:34.121Z,99.90
2018-06-25T23:39:07.238Z,99.90
2018-06-25T23:41:38.725Z,99.90
2018-06-25T23:44:10.858Z,99.90
2018-06-25T23:46:41.708Z,99.90
2018-06-25T23:49:13.500Z,99.90
2018-06-25T23:51:45.059Z,99.90
2018-06-25T23:54:17.038Z,99.90
2018-06-25T23:56:48.073Z,99.90
